createdAt,value
2019-01-10T00:01:16.166Z,2.20
2019-01-10T00:03:45.724Z,1.53
2019-01-10T00:06:14.964Z,1.37
2019-01-10T00:08:44.184Z,2.23
2019-01-10T00:11:13.390Z,2.77
2019-01-10T00:13:42.963Z,3.80
2019-01-10T00:16:12.145Z,1.63
2019-01-10T00:18:41.689Z,1.70
2019-01-10T00:21:10.917Z,2.77
2019-01-10T00:23:40.457Z,2.53
2019-01-10T00:26:10.064Z,1.97
2019-01-10T00:28:39.551Z,3.00
2019-01-10T00:31:08.718Z,2.35
2019-01-10T00:33:38.670Z,2.10
2019-01-10T00:36:08.119Z,2.77
2019-01-10T00:38:37.418Z,2.10
2019-01-10T00:41:06.652Z,2.58
2019-01-10T00:43:36.164Z,2.30
2019-01-10T00:46:05.741Z,1.63
2019-01-10T00:48:34.891Z,1.30
2019-01-10T00:51:04.108Z,2.30
2019-01-10T00:53:33.275Z,2.20
2019-01-10T00:56:03.282Z,1.60
2019-01-10T00:58:32.720Z,2.10
2019-01-10T01:01:01.874Z,2.57
2019-01-10T01:03:31.452Z,1.30
2019-01-10T01:06:01.190Z,2.30
2019-01-10T01:08:30.353Z,2.33
2019-01-10T01:10:59.522Z,1.60
2019-01-10T01:13:28.798Z,2.57
2019-01-10T01:15:57.951Z,2.70
2019-01-10T01:18:27.091Z,2.03
2019-01-10T01:20:56.553Z,2.10
2019-01-10T01:23:25.809Z,2.00
2019-01-10T01:25:55.347Z,1.93
2019-01-10T01:28:24.679Z,1.87
2019-01-10T01:30:53.854Z,2.87
2019-01-10T01:33:23.354Z,1.20
2019-01-10T01:35:52.547Z,2.80
2019-01-10T01:38:21.707Z,1.53
2019-01-10T01:40:51.698Z,1.60
2019-01-10T01:43:21.136Z,1.63
2019-01-10T01:45:50.992Z,2.07
2019-01-10T01:48:20.936Z,1.90
2019-01-10T01:50:50.117Z,2.20
2019-01-10T01:53:19.412Z,1.97
2019-01-10T01:55:48.614Z,2.23
2019-01-10T01:58:18.643Z,1.97
2019-01-10T02:00:48.054Z,2.50
2019-01-10T02:03:17.187Z,1.60
2019-01-10T02:05:46.703Z,2.00
2019-01-10T02:08:15.897Z,2.07
2019-01-10T02:10:45.118Z,2.20
2019-01-10T02:13:16.908Z,2.40
2019-01-10T02:15:45.228Z,2.10
2019-01-10T02:18:14.431Z,2.77
2019-01-10T02:20:43.617Z,2.42
2019-01-10T02:23:12.757Z,2.40
2019-01-10T02:25:41.926Z,2.33
2019-01-10T02:28:11.463Z,1.57
2019-01-10T02:30:42.058Z,3.27
2019-01-10T02:33:11.679Z,1.97
2019-01-10T02:35:40.912Z,2.80
2019-01-10T02:38:10.093Z,2.63
2019-01-10T02:40:39.617Z,2.30
2019-01-10T02:43:09.199Z,2.30
2019-01-10T02:45:38.732Z,2.77
2019-01-10T02:48:07.902Z,1.90
2019-01-10T02:50:37.751Z,3.50
2019-01-10T02:53:07.041Z,2.07
2019-01-10T02:55:36.249Z,2.20
2019-01-10T02:58:05.750Z,3.07
2019-01-10T03:00:35.289Z,2.47
2019-01-10T03:03:04.485Z,2.47
2019-01-10T03:05:33.723Z,1.90
2019-01-10T03:08:02.910Z,2.13
2019-01-10T03:10:32.150Z,2.40
2019-01-10T03:13:02.464Z,2.30
2019-01-10T03:15:31.671Z,2.10
2019-01-10T03:18:01.484Z,2.77
2019-01-10T03:20:30.671Z,2.40
2019-01-10T03:22:59.840Z,2.73
2019-01-10T03:25:29.392Z,2.20
2019-01-10T03:27:58.926Z,2.87
2019-01-10T03:30:28.445Z,3.03
2019-01-10T03:32:57.787Z,3.17
2019-01-10T03:35:27.064Z,2.10
2019-01-10T03:37:56.190Z,2.87
2019-01-10T03:40:25.713Z,2.93
2019-01-10T03:42:55.202Z,2.40
2019-01-10T03:45:24.451Z,3.70
2019-01-10T03:47:53.582Z,2.77
2019-01-10T03:50:22.866Z,2.70
2019-01-10T03:52:52.059Z,1.90
2019-01-10T03:55:21.233Z,2.07
2019-01-10T03:57:50.848Z,2.20
2019-01-10T04:00:24.581Z,2.20
2019-01-10T04:02:53.736Z,1.87
2019-01-10T04:05:23.412Z,2.33
2019-01-10T04:07:52.598Z,2.37
2019-01-10T04:10:22.105Z,2.40
2019-01-10T04:12:51.549Z,2.40
2019-01-10T04:15:20.815Z,2.60
2019-01-10T04:17:50.981Z,2.07
2019-01-10T04:20:20.257Z,2.40
2019-01-10T04:22:49.448Z,1.90
2019-01-10T04:25:18.671Z,1.80
2019-01-10T04:27:47.814Z,2.07
2019-01-10T04:30:21.828Z,2.33
2019-01-10T04:32:50.982Z,3.00
2019-01-10T04:35:20.510Z,2.73
2019-01-10T04:37:50.044Z,2.80
2019-01-10T04:40:21.064Z,3.10
2019-01-10T04:42:50.482Z,2.40
2019-01-10T04:45:19.622Z,5.73
2019-01-10T04:47:49.117Z,2.93
2019-01-10T04:50:18.720Z,3.67
2019-01-10T04:52:48.355Z,3.10
2019-01-10T04:55:17.486Z,3.10
2019-01-10T04:57:47.230Z,2.93
2019-01-10T05:00:19.733Z,3.90
2019-01-10T05:02:48.886Z,3.60
2019-01-10T05:05:18.143Z,2.80
2019-01-10T05:07:47.289Z,3.27
2019-01-10T05:10:16.962Z,2.63
2019-01-10T05:12:46.213Z,2.07
2019-01-10T05:15:15.556Z,2.67
2019-01-10T05:17:45.057Z,2.70
2019-01-10T05:20:19.460Z,2.60
2019-01-10T05:22:48.878Z,2.70
2019-01-10T05:25:18.081Z,3.83
2019-01-10T05:27:47.609Z,4.40
2019-01-10T05:30:26.246Z,4.47
2019-01-10T05:32:55.765Z,3.10
2019-01-10T05:35:25.458Z,3.40
2019-01-10T05:37:54.676Z,3.40
2019-01-10T05:40:24.203Z,2.53
2019-01-10T05:42:54.157Z,2.00
2019-01-10T05:45:23.345Z,3.17
2019-01-10T05:47:52.513Z,2.33
2019-01-10T05:50:22.169Z,2.50
2019-01-10T05:52:51.934Z,3.23
2019-01-10T05:55:25.936Z,3.10
2019-01-10T05:57:55.288Z,2.70
2019-01-10T06:00:27.122Z,3.00
2019-01-10T06:02:56.943Z,3.17
2019-01-10T06:05:27.841Z,3.23
2019-01-10T06:07:57.001Z,3.13
2019-01-10T06:10:28.242Z,3.37
2019-01-10T06:12:58.569Z,2.07
2019-01-10T06:15:27.896Z,2.45
2019-01-10T06:17:57.141Z,2.47
2019-01-10T06:20:26.977Z,2.80
2019-01-10T06:22:56.992Z,2.20
2019-01-10T06:25:26.290Z,2.50
2019-01-10T06:27:55.774Z,2.67
2019-01-10T06:30:25.146Z,3.00
2019-01-10T06:32:54.821Z,2.97
2019-01-10T06:35:24.259Z,3.27
2019-01-10T06:37:53.577Z,3.80
2019-01-10T06:40:23.191Z,2.93
2019-01-10T06:42:54.033Z,3.20
2019-01-10T06:45:23.174Z,2.40
2019-01-10T06:47:52.924Z,2.60
2019-01-10T06:50:22.818Z,3.13
2019-01-10T06:52:52.905Z,3.83
2019-01-10T06:55:22.182Z,2.97
2019-01-10T06:57:51.470Z,3.00
2019-01-10T07:00:25.286Z,3.17
2019-01-10T07:02:55.318Z,3.10
2019-01-10T07:05:25.711Z,3.00
2019-01-10T07:07:56.638Z,2.97
2019-01-10T07:10:30.476Z,3.53
2019-01-10T07:12:59.949Z,3.27
2019-01-10T07:15:29.118Z,3.13
2019-01-10T07:17:58.665Z,4.00
2019-01-10T07:20:28.007Z,2.80
2019-01-10T07:22:57.510Z,3.33
2019-01-10T07:25:27.050Z,3.50
2019-01-10T07:27:58.033Z,3.20
2019-01-10T07:30:35.707Z,3.87
2019-01-10T07:32:59.645Z,3.13
2019-01-10T07:35:28.878Z,3.63
2019-01-10T07:37:58.692Z,5.80
2019-01-10T07:40:28.551Z,3.13
2019-01-10T07:42:58.091Z,3.70
2019-01-10T07:45:28.793Z,4.87
2019-01-10T07:47:59.236Z,4.00
2019-01-10T07:50:38.437Z,3.97
2019-01-10T07:53:09.164Z,4.30
2019-01-10T07:55:40.769Z,4.37
2019-01-10T07:58:10.120Z,5.03
2019-01-10T08:00:40.452Z,6.40
2019-01-10T08:03:09.628Z,7.80
2019-01-10T08:05:40.620Z,7.90
2019-01-10T08:08:10.564Z,8.23
2019-01-10T08:10:39.778Z,6.60
2019-01-10T08:13:09.449Z,5.60
2019-01-10T08:15:38.619Z,9.33
2019-01-10T08:18:08.019Z,16.50
2019-01-10T08:20:37.190Z,11.00
2019-01-10T08:23:06.303Z,15.13
2019-01-10T08:25:35.546Z,22.70
2019-01-10T08:28:04.806Z,9.90
2019-01-10T08:30:34.248Z,7.00
2019-01-10T08:33:03.789Z,6.03
2019-01-10T08:35:33.293Z,7.87
2019-01-10T08:38:03.338Z,6.87
2019-01-10T08:40:32.493Z,8.90
2019-01-10T08:43:02.321Z,4.70
2019-01-10T08:45:31.825Z,5.27
2019-01-10T08:48:01.129Z,5.20
2019-01-10T08:50:30.330Z,3.90
2019-01-10T08:52:59.834Z,3.63
2019-01-10T08:55:29.008Z,5.03
2019-01-10T08:57:58.218Z,8.97
2019-01-10T09:00:27.742Z,10.00
2019-01-10T09:02:57.132Z,8.83
2019-01-10T09:05:26.295Z,22.00
2019-01-10T09:07:55.431Z,8.47
2019-01-10T09:10:29.645Z,7.63
2019-01-10T09:12:59.158Z,7.80
2019-01-10T09:15:34.322Z,6.83
2019-01-10T09:17:59.576Z,4.90
2019-01-10T09:20:28.794Z,4.77
2019-01-10T09:22:57.958Z,4.63
2019-01-10T09:25:27.620Z,5.33
2019-01-10T09:27:58.091Z,4.60
2019-01-10T09:30:27.474Z,4.93
2019-01-10T09:32:57.161Z,4.17
2019-01-10T09:35:26.689Z,15.57
2019-01-10T09:37:55.854Z,9.70
2019-01-10T09:40:25.144Z,8.10
2019-01-10T09:42:54.453Z,6.70
2019-01-10T09:45:25.338Z,5.77
2019-01-10T09:47:54.898Z,8.07
2019-01-10T09:50:24.750Z,12.40
2019-01-10T09:52:54.479Z,6.00
2019-01-10T09:55:43.051Z,6.23
2019-01-10T09:58:12.501Z,8.10
2019-01-10T10:00:41.804Z,6.95
2019-01-10T10:03:10.970Z,8.70
2019-01-10T10:05:40.538Z,6.50
2019-01-10T10:08:10.014Z,8.10
2019-01-10T10:10:39.516Z,4.67
2019-01-10T10:13:08.672Z,6.67
2019-01-10T10:15:37.848Z,24.97
2019-01-10T10:18:07.038Z,36.10
2019-01-10T10:20:37.668Z,14.73
2019-01-10T10:23:07.265Z,75.43
2019-01-10T10:25:36.762Z,10.60
2019-01-10T10:28:06.120Z,7.80
2019-01-10T10:30:36.398Z,6.53
2019-01-10T10:33:06.318Z,5.60
2019-01-10T10:35:35.831Z,5.30
2019-01-10T10:38:05.057Z,4.20
2019-01-10T10:40:34.286Z,4.23
2019-01-10T10:43:05.710Z,4.73
2019-01-10T10:45:35.163Z,4.50
2019-01-10T10:48:04.383Z,4.10
2019-01-10T10:50:35.143Z,4.67
2019-01-10T10:53:06.337Z,4.43
2019-01-10T10:55:35.826Z,4.50
2019-01-10T10:58:05.189Z,6.23
2019-01-10T11:00:36.828Z,6.50
2019-01-10T11:03:05.990Z,5.63
2019-01-10T11:05:35.546Z,4.37
2019-01-10T11:08:04.817Z,5.10
2019-01-10T11:10:34.186Z,5.10
2019-01-10T11:13:03.372Z,4.23
2019-01-10T11:15:32.843Z,3.30
2019-01-10T11:18:02.201Z,4.10
2019-01-10T11:20:31.413Z,4.10
2019-01-10T11:23:10.158Z,4.07
2019-01-10T11:25:32.076Z,4.40
2019-01-10T11:28:01.289Z,4.60
2019-01-10T11:30:31.093Z,3.97
2019-01-10T11:33:00.672Z,4.43
2019-01-10T11:35:30.616Z,4.30
2019-01-10T11:38:00.120Z,7.80
2019-01-10T11:40:29.758Z,7.20
2019-01-10T11:42:59.053Z,7.70
2019-01-10T11:45:29.267Z,4.10
2019-01-10T11:48:00.197Z,3.63
2019-01-10T11:50:29.346Z,5.10
2019-01-10T11:53:00.612Z,3.70
2019-01-10T11:55:29.812Z,6.40
2019-01-10T11:57:59.023Z,14.57
2019-01-10T12:00:31.188Z,5.30
2019-01-10T12:03:02.224Z,4.40
2019-01-10T12:05:31.429Z,4.20
2019-01-10T12:08:00.956Z,5.07
2019-01-10T12:10:30.465Z,4.70
2019-01-10T12:12:59.662Z,4.00
2019-01-10T12:15:29.186Z,3.17
2019-01-10T12:17:58.420Z,3.60
2019-01-10T12:20:27.998Z,3.40
2019-01-10T12:22:57.599Z,4.30
2019-01-10T12:25:27.223Z,4.23
2019-01-10T12:27:56.795Z,4.80
2019-01-10T12:30:26.941Z,3.97
2019-01-10T12:32:56.168Z,4.30
2019-01-10T12:35:26.139Z,3.90
2019-01-10T12:37:55.509Z,4.57
2019-01-10T12:40:26.072Z,4.35
2019-01-10T12:42:55.439Z,5.50
2019-01-10T12:45:24.602Z,5.50
2019-01-10T12:47:54.076Z,6.03
2019-01-10T12:50:28.494Z,5.00
2019-01-10T12:52:57.649Z,9.40
2019-01-10T12:55:26.889Z,8.00
2019-01-10T12:57:56.128Z,8.97
2019-01-10T13:00:25.705Z,8.13
2019-01-10T13:02:55.908Z,6.60
2019-01-10T13:05:25.282Z,6.73
2019-01-10T13:08:03.145Z,6.33
2019-01-10T13:10:25.984Z,5.40
2019-01-10T13:12:55.322Z,5.13
2019-01-10T13:15:28.177Z,5.87
2019-01-10T13:17:57.643Z,5.73
2019-01-10T13:20:26.805Z,5.13
2019-01-10T13:22:56.276Z,5.40
2019-01-10T13:25:25.533Z,5.13
2019-01-10T13:27:57.253Z,5.37
2019-01-10T13:30:28.571Z,5.33
2019-01-10T13:32:58.497Z,5.10
2019-01-10T13:35:28.126Z,4.58
2019-01-10T13:37:57.721Z,5.20
2019-01-10T13:40:28.672Z,4.93
2019-01-10T13:42:57.830Z,5.30
2019-01-10T13:45:29.117Z,4.43
2019-01-10T13:47:58.310Z,4.00
2019-01-10T13:50:32.018Z,4.23
2019-01-10T13:53:01.210Z,5.13
2019-01-10T13:55:30.411Z,11.10
2019-01-10T13:57:59.818Z,18.73
2019-01-10T14:00:35.723Z,8.47
2019-01-10T14:03:04.138Z,5.53
2019-01-10T14:05:33.705Z,9.60
2019-01-10T14:08:02.987Z,49.60
2019-01-10T14:10:32.582Z,32.67
2019-01-10T14:13:01.729Z,23.00
2019-01-10T14:15:35.772Z,60.80
2019-01-10T14:18:05.872Z,30.40
2019-01-10T14:20:36.560Z,11.63
2019-01-10T14:23:05.915Z,8.37
2019-01-10T14:25:35.283Z,4.57
2019-01-10T14:28:04.502Z,4.30
2019-01-10T14:30:39.741Z,3.93
2019-01-10T14:33:11.898Z,3.87
2019-01-10T14:35:41.447Z,4.10
2019-01-10T14:38:11.118Z,5.10
2019-01-10T14:40:40.398Z,4.00
2019-01-10T14:43:09.997Z,4.87
2019-01-10T14:45:40.568Z,5.53
2019-01-10T14:48:11.308Z,4.50
2019-01-10T14:50:41.265Z,4.60
2019-01-10T14:53:10.481Z,4.53
2019-01-10T14:55:39.964Z,4.10
2019-01-10T14:58:09.115Z,4.40
2019-01-10T15:00:38.486Z,5.00
2019-01-10T15:03:07.925Z,4.40
2019-01-10T15:05:37.230Z,5.60
2019-01-10T15:08:06.519Z,4.77
2019-01-10T15:10:36.065Z,3.83
2019-01-10T15:13:05.918Z,4.40
2019-01-10T15:15:35.667Z,4.67
2019-01-10T15:18:06.793Z,5.10
2019-01-10T15:20:36.691Z,4.37
2019-01-10T15:23:05.866Z,4.10
2019-01-10T15:25:35.146Z,6.13
2019-01-10T15:28:04.305Z,4.57
2019-01-10T15:30:33.569Z,5.20
2019-01-10T15:33:03.070Z,5.00
2019-01-10T15:35:32.580Z,4.80
2019-01-10T15:38:02.423Z,4.60
2019-01-10T15:40:33.157Z,5.33
2019-01-10T15:43:03.714Z,6.73
2019-01-10T15:45:33.700Z,5.30
2019-01-10T15:48:03.416Z,5.93
2019-01-10T15:50:33.243Z,5.30
2019-01-10T15:53:03.511Z,5.00
2019-01-10T15:55:33.048Z,5.00
2019-01-10T15:58:02.278Z,4.70
2019-01-10T16:00:31.466Z,3.90
2019-01-10T16:03:01.327Z,4.10
2019-01-10T16:05:30.486Z,4.03
2019-01-10T16:07:59.673Z,4.23
2019-01-10T16:10:29.147Z,4.53
2019-01-10T16:12:58.521Z,3.43
2019-01-10T16:15:27.724Z,4.50
2019-01-10T16:17:56.912Z,3.67
2019-01-10T16:20:26.127Z,3.60
2019-01-10T16:22:55.287Z,4.20
2019-01-10T16:25:24.758Z,4.30
2019-01-10T16:27:54.479Z,3.37
2019-01-10T16:30:31.462Z,4.25
2019-01-10T16:33:01.304Z,4.03
2019-01-10T16:35:30.583Z,5.13
2019-01-10T16:38:00.164Z,4.50
2019-01-10T16:40:29.339Z,9.10
2019-01-10T16:42:58.995Z,4.70
2019-01-10T16:45:33.614Z,5.30
2019-01-10T16:48:03.164Z,4.83
2019-01-10T16:50:34.212Z,5.10
2019-01-10T16:53:03.627Z,4.80
2019-01-10T16:55:34.120Z,5.83
2019-01-10T16:58:05.155Z,4.37
2019-01-10T17:00:35.426Z,5.67
2019-01-10T17:03:05.788Z,4.80
2019-01-10T17:05:35.030Z,5.57
2019-01-10T17:08:04.580Z,8.20
2019-01-10T17:10:34.092Z,7.43
2019-01-10T17:13:03.699Z,5.20
2019-01-10T17:15:32.877Z,4.53
2019-01-10T17:18:02.406Z,6.07
2019-01-10T17:20:31.825Z,4.80
2019-01-10T17:23:01.427Z,4.40
2019-01-10T17:25:30.633Z,5.27
2019-01-10T17:28:00.535Z,4.83
2019-01-10T17:30:31.017Z,4.80
2019-01-10T17:33:00.932Z,4.50
2019-01-10T17:35:32.397Z,5.27
2019-01-10T17:38:02.064Z,4.00
2019-01-10T17:40:31.521Z,3.63
2019-01-10T17:43:00.716Z,3.70
2019-01-10T17:45:32.338Z,3.47
2019-01-10T17:48:01.919Z,3.57
2019-01-10T17:50:31.382Z,3.70
2019-01-10T17:53:00.588Z,3.83
2019-01-10T17:55:30.118Z,3.87
2019-01-10T17:57:59.704Z,4.53
2019-01-10T18:00:30.630Z,4.60
2019-01-10T18:03:00.371Z,4.20
2019-01-10T18:05:29.589Z,3.70
2019-01-10T18:07:59.492Z,6.50
2019-01-10T18:10:28.863Z,4.92
2019-01-10T18:12:58.432Z,5.40
2019-01-10T18:15:28.324Z,5.60
2019-01-10T18:17:57.827Z,5.50
2019-01-10T18:20:32.549Z,5.57
2019-01-10T18:23:01.739Z,5.20
2019-01-10T18:25:30.901Z,5.20
2019-01-10T18:28:00.218Z,5.00
2019-01-10T18:30:29.467Z,5.60
2019-01-10T18:32:58.961Z,6.30
2019-01-10T18:35:28.883Z,5.00
2019-01-10T18:37:59.711Z,4.57
2019-01-10T18:40:29.601Z,4.03
2019-01-10T18:42:59.545Z,5.03
2019-01-10T18:45:31.235Z,5.07
2019-01-10T18:48:00.780Z,4.37
2019-01-10T18:50:30.364Z,4.40
2019-01-10T18:53:00.289Z,3.60
2019-01-10T18:55:29.497Z,4.03
2019-01-10T18:57:58.764Z,6.23
2019-01-10T19:00:29.633Z,4.50
2019-01-10T19:03:00.013Z,7.07
2019-01-10T19:05:30.495Z,4.80
2019-01-10T19:08:00.094Z,3.60
2019-01-10T19:10:29.299Z,3.90
2019-01-10T19:12:58.541Z,7.53
2019-01-10T19:15:28.047Z,3.70
2019-01-10T19:18:03.154Z,4.10
2019-01-10T19:20:29.333Z,4.70
2019-01-10T19:23:02.586Z,4.40
2019-01-10T19:25:32.076Z,6.03
2019-01-10T19:28:01.485Z,4.57
2019-01-10T19:30:36.259Z,6.30
2019-01-10T19:33:06.409Z,6.90
2019-01-10T19:35:35.880Z,6.63
2019-01-10T19:38:05.736Z,6.13
2019-01-10T19:40:34.909Z,8.20
2019-01-10T19:43:04.827Z,9.43
2019-01-10T19:45:34.010Z,17.77
2019-01-10T19:48:09.700Z,11.10
2019-01-10T19:50:36.017Z,10.33
2019-01-10T19:53:05.345Z,29.73
2019-01-10T19:55:34.556Z,11.53
2019-01-10T19:58:04.188Z,15.20
2019-01-10T20:00:36.702Z,13.33
2019-01-10T20:03:06.584Z,12.97
2019-01-10T20:05:35.937Z,19.70
2019-01-10T20:08:05.804Z,23.93
2019-01-10T20:10:35.427Z,16.90
2019-01-10T20:13:04.702Z,17.30
2019-01-10T20:15:33.909Z,16.47
2019-01-10T20:18:03.125Z,18.17
2019-01-10T20:20:35.652Z,17.33
2019-01-10T20:23:07.018Z,19.90
2019-01-10T20:25:37.847Z,20.20
2019-01-10T20:28:07.195Z,18.87
2019-01-10T20:30:37.062Z,19.83
2019-01-10T20:33:06.585Z,21.90
2019-01-10T20:35:36.034Z,22.40
2019-01-10T20:38:05.968Z,24.27
2019-01-10T20:40:36.556Z,23.40
2019-01-10T20:43:06.283Z,24.00
2019-01-10T20:45:36.193Z,25.77
2019-01-10T20:48:06.232Z,27.03
2019-01-10T20:50:35.497Z,26.40
2019-01-10T20:53:05.802Z,26.00
2019-01-10T20:55:36.227Z,28.00
2019-01-10T20:58:06.019Z,29.27
2019-01-10T21:00:35.970Z,26.07
2019-01-10T21:03:05.692Z,28.93
2019-01-10T21:05:34.899Z,27.50
2019-01-10T21:08:04.054Z,27.13
2019-01-10T21:10:33.694Z,29.37
2019-01-10T21:13:03.050Z,27.50
2019-01-10T21:15:32.577Z,29.40
2019-01-10T21:18:01.770Z,27.00
2019-01-10T21:20:30.942Z,28.23
2019-01-10T21:23:00.640Z,28.30
2019-01-10T21:25:29.856Z,28.60
2019-01-10T21:28:00.703Z,28.60
2019-01-10T21:30:29.911Z,28.67
2019-01-10T21:32:59.124Z,27.63
2019-01-10T21:35:28.767Z,29.50
2019-01-10T21:37:57.980Z,30.20
2019-01-10T21:40:28.665Z,29.23
2019-01-10T21:42:58.546Z,33.90
2019-01-10T21:45:28.327Z,33.10
2019-01-10T21:47:59.297Z,31.83
2019-01-10T21:50:28.501Z,42.83
2019-01-10T21:52:57.744Z,32.37
2019-01-10T21:55:26.898Z,32.57
2019-01-10T21:57:56.157Z,35.93
2019-01-10T22:00:27.977Z,32.60
2019-01-10T22:02:57.757Z,33.10
2019-01-10T22:05:26.919Z,33.60
2019-01-10T22:07:56.094Z,38.30
2019-01-10T22:10:25.598Z,35.30
2019-01-10T22:12:55.280Z,34.33
2019-01-10T22:15:25.063Z,32.80
2019-01-10T22:17:54.646Z,34.73
2019-01-10T22:20:24.764Z,36.83
2019-01-10T22:22:53.994Z,35.87
2019-01-10T22:25:23.262Z,31.37
2019-01-10T22:27:52.871Z,34.90
2019-01-10T22:30:23.244Z,33.07
2019-01-10T22:32:52.402Z,32.97
2019-01-10T22:35:23.189Z,34.63
2019-01-10T22:37:54.201Z,31.93
2019-01-10T22:40:24.766Z,30.47
2019-01-10T22:42:54.358Z,33.07
2019-01-10T22:45:23.904Z,38.97
2019-01-10T22:47:53.989Z,31.17
2019-01-10T22:50:24.929Z,33.40
2019-01-10T22:52:54.612Z,34.83
2019-01-10T22:55:25.733Z,33.50
2019-01-10T22:57:55.269Z,35.87
2019-01-10T23:01:21.726Z,35.60
2019-01-10T23:03:51.023Z,35.43
2019-01-10T23:06:20.205Z,32.70
2019-01-10T23:08:50.873Z,35.90
2019-01-10T23:11:23.949Z,38.17
2019-01-10T23:14:00.563Z,35.00
2019-01-10T23:16:30.762Z,37.03
2019-01-10T23:18:59.962Z,36.57
2019-01-10T23:21:31.193Z,36.67
2019-01-10T23:24:26.717Z,36.80
2019-01-10T23:26:57.018Z,35.73
2019-01-10T23:29:33.076Z,35.07
2019-01-10T23:32:10.895Z,37.87
2019-01-10T23:34:47.019Z,35.40
2019-01-10T23:37:24.734Z,36.53
2019-01-10T23:39:55.260Z,36.43
2019-01-10T23:42:24.751Z,35.90
2019-01-10T23:44:53.960Z,36.50
2019-01-10T23:47:23.183Z,39.23
2019-01-10T23:49:52.322Z,36.43
2019-01-10T23:52:21.612Z,38.60
2019-01-10T23:54:51.486Z,37.00
2019-01-10T23:57:21.015Z,34.87
2019-01-10T23:59:50.212Z,39.40
